Tallahassee, FL (32317)

11:57 PM EST on December 24, 2014 (GMT -0500)
KFLTALLA44 | Change Station
CLOSE
Current Station
Personal Weather Station
Location: Tallahassee, FL
Elevation: 174 ft
Nearby Weather Stations

Elev 174 ft 30.54 °N, 84.17 °W | Updated 4 seconds ago

Overcast
Overcast
54.0 °F
Feels Like 54.0 °F
N
0.9
Wind Variable Wind from West
Gusts 1.6 mph

Today
High -- | Low -- °F
--% Chance of Precip.
Yesterday
High -- | Low -- °F
Precip. -- in
7:30 AM 5:41 PM
Waxing Crescent, 13% visible
Pressure 30.01 in
Visibility 10.0 miles
Clouds Few 5500 ft
Few 8000 ft
Mostly Cloudy 11000 ft
Dew Point 54 °F
Humidity 99%
Rainfall 1.15 in
Snow Depth Not available.
UV 0 out of 12
Pollen .50 out of 12
Air Quality Not available.
Flu Activity Not available.
METAR KTLH 250353Z 29007KT 10SM -RA FEW055 FEW080 BKN110 13/09 A3001 RMK AO2 RAB17 SLP160 LAST AUGMENTED OBS P0000 T01330089 $

More Conditions Fewer Conditions

Pressure 30.01 in
Visibility 10.0 miles
Clouds Few 5500 ft
Few 8000 ft
Mostly Cloudy 11000 ft
Dew Point 54 °F
Humidity 99%
Rainfall 1.15 in
Snow Depth Not available.
UV 0 out of 12
Pollen .50 out of 12
Air Quality Not available.
Flu Activity Not available.
METAR KTLH 250353Z 29007KT 10SM -RA FEW055 FEW080 BKN110 13/09 A3001 RMK AO2 RAB17 SLP160 LAST AUGMENTED OBS P0000 T01330089 $

More Conditions Fewer Conditions

10-Day Weather Forecast

Almanac

Astronomy

Dec. 24, 2014 Rise Set
Actual Time
Civil Twilight
Nautical Twilight
Astronomical Twilight
Moon
Length of Visible Light
Length of Day
Tomorrow will be .
, % of the Moon is Illuminated

Today's Extremes

State Highs State Lows

Community

WunderPhotos

Upload Photos

1,780,238 photos uploaded!

WunderBlogs® & News

Nearby

Air Quality

  Air Quality AQ Index Pollutant
Not available.

Snow Depth

Station Depth Elevation

Earthquake Activity

City Distance Mag. Time & Date
Minimum magnitude displayed is 2.5.

Coastal Water Temperatures

Place Temperature

Nearby Weather Stations